sensor_id;sensor_type;location;lat;lon;timestamp;P1;durP1;ratioP1;P2;durP2;ratioP2
18267;SDS011;9260;49.998;19.880;2022-07-18T00:06:44;247.83;;;115.67;;
18267;SDS011;9260;49.998;19.880;2022-07-18T00:16:48;263.10;;;122.27;;
18267;SDS011;9260;49.998;19.880;2022-07-18T00:26:53;249.07;;;109.70;;
18267;SDS011;9260;49.998;19.880;2022-07-18T00:36:57;225.67;;;93.00;;
18267;SDS011;9260;49.998;19.880;2022-07-18T00:47:03;229.17;;;93.57;;
18267;SDS011;9260;49.998;19.880;2022-07-18T00:57:07;244.03;;;95.50;;
18267;SDS011;9260;49.998;19.880;2022-07-18T01:07:13;241.83;;;91.80;;
18267;SDS011;9260;49.998;19.880;2022-07-18T01:17:18;218.83;;;93.37;;
18267;SDS011;9260;49.998;19.880;2022-07-18T01:27:24;240.73;;;111.30;;
18267;SDS011;9260;49.998;19.880;2022-07-18T01:37:28;222.13;;;95.50;;
18267;SDS011;9260;49.998;19.880;2022-07-18T01:47:34;227.73;;;100.37;;
18267;SDS011;9260;49.998;19.880;2022-07-18T01:57:38;219.43;;;91.13;;
18267;SDS011;9260;49.998;19.880;2022-07-18T02:07:43;230.33;;;97.07;;
18267;SDS011;9260;49.998;19.880;2022-07-18T02:17:47;235.30;;;107.13;;
18267;SDS011;9260;49.998;19.880;2022-07-18T02:27:53;232.67;;;111.63;;
18267;SDS011;9260;49.998;19.880;2022-07-18T02:37:57;219.10;;;92.40;;
18267;SDS011;9260;49.998;19.880;2022-07-18T02:48:02;222.33;;;94.27;;
18267;SDS011;9260;49.998;19.880;2022-07-18T02:58:07;228.50;;;90.57;;
18267;SDS011;9260;49.998;19.880;2022-07-18T03:08:12;218.07;;;82.63;;
18267;SDS011;9260;49.998;19.880;2022-07-18T03:18:16;235.47;;;95.70;;
18267;SDS011;9260;49.998;19.880;2022-07-18T03:28:21;220.97;;;104.33;;
18267;SDS011;9260;49.998;19.880;2022-07-18T03:38:25;207.33;;;86.40;;
18267;SDS011;9260;49.998;19.880;2022-07-18T03:48:30;215.43;;;97.87;;
18267;SDS011;9260;49.998;19.880;2022-07-18T03:58:37;209.13;;;84.77;;
18267;SDS011;9260;49.998;19.880;2022-07-18T04:08:42;205.93;;;86.27;;
18267;SDS011;9260;49.998;19.880;2022-07-18T04:18:46;210.00;;;86.30;;
18267;SDS011;9260;49.998;19.880;2022-07-18T04:28:52;209.03;;;84.93;;
18267;SDS011;9260;49.998;19.880;2022-07-18T04:38:56;209.00;;;84.67;;
18267;SDS011;9260;49.998;19.880;2022-07-18T04:49:01;211.67;;;88.50;;
18267;SDS011;9260;49.998;19.880;2022-07-18T04:59:05;215.80;;;91.60;;
18267;SDS011;9260;49.998;19.880;2022-07-18T05:09:11;213.60;;;90.93;;
18267;SDS011;9260;49.998;19.880;2022-07-18T05:19:14;222.27;;;100.67;;
18267;SDS011;9260;49.998;19.880;2022-07-18T05:29:20;218.43;;;91.47;;
18267;SDS011;9260;49.998;19.880;2022-07-18T05:39:24;215.30;;;90.73;;
18267;SDS011;9260;49.998;19.880;2022-07-18T05:49:30;222.73;;;95.57;;
18267;SDS011;9260;49.998;19.880;2022-07-18T05:59:34;225.13;;;93.80;;
18267;SDS011;9260;49.998;19.880;2022-07-18T06:09:39;222.37;;;92.03;;
18267;SDS011;9260;49.998;19.880;2022-07-18T06:19:43;219.33;;;92.13;;
18267;SDS011;9260;49.998;19.880;2022-07-18T06:29:48;218.43;;;89.70;;
18267;SDS011;9260;49.998;19.880;2022-07-18T06:39:52;226.90;;;97.30;;
18267;SDS011;9260;49.998;19.880;2022-07-18T06:50:02;220.67;;;98.00;;
18267;SDS011;9260;49.998;19.880;2022-07-18T07:00:07;223.10;;;98.60;;
18267;SDS011;9260;49.998;19.880;2022-07-18T07:10:17;232.33;;;103.43;;
18267;SDS011;9260;49.998;19.880;2022-07-18T07:20:21;217.67;;;102.03;;
18267;SDS011;9260;49.998;19.880;2022-07-18T07:30:28;216.67;;;101.07;;
18267;SDS011;9260;49.998;19.880;2022-07-18T07:40:32;217.90;;;106.23;;
18267;SDS011;9260;49.998;19.880;2022-07-18T07:50:38;215.97;;;106.57;;
18267;SDS011;9260;49.998;19.880;2022-07-18T08:00:41;222.63;;;106.50;;
18267;SDS011;9260;49.998;19.880;2022-07-18T08:10:47;218.90;;;108.60;;
18267;SDS011;9260;49.998;19.880;2022-07-18T08:20:51;220.53;;;110.40;;
18267;SDS011;9260;49.998;19.880;2022-07-18T08:30:56;226.10;;;115.00;;
18267;SDS011;9260;49.998;19.880;2022-07-18T08:41:00;234.07;;;121.80;;
18267;SDS011;9260;49.998;19.880;2022-07-18T08:51:05;234.35;;;125.47;;
18267;SDS011;9260;49.998;19.880;2022-07-18T09:01:09;224.43;;;133.15;;
18267;SDS011;9260;49.998;19.880;2022-07-18T09:11:14;227.50;;;139.00;;
18267;SDS011;9260;49.998;19.880;2022-07-18T09:21:38;220.73;;;141.55;;
18267;SDS011;9260;49.998;19.880;2022-07-18T09:31:46;211.20;;;137.70;;
18267;SDS011;9260;49.998;19.880;2022-07-18T09:41:52;211.32;;;143.27;;
18267;SDS011;9260;49.998;19.880;2022-07-18T09:52:04;207.20;;;142.05;;
18267;SDS011;9260;49.998;19.880;2022-07-18T10:02:10;196.30;;;146.38;;
18267;SDS011;9260;49.998;19.880;2022-07-18T10:12:16;188.23;;;141.18;;
18267;SDS011;9260;49.998;19.880;2022-07-18T10:22:20;193.40;;;148.07;;
18267;SDS011;9260;49.998;19.880;2022-07-18T10:32:32;187.77;;;141.38;;
18267;SDS011;9260;49.998;19.880;2022-07-18T10:42:36;196.05;;;153.32;;
18267;SDS011;9260;49.998;19.880;2022-07-18T10:52:58;229.18;;;189.68;;
18267;SDS011;9260;49.998;19.880;2022-07-18T11:03:04;214.52;;;179.52;;
18267;SDS011;9260;49.998;19.880;2022-07-18T11:13:24;300.10;;;269.20;;
18267;SDS011;9260;49.998;19.880;2022-07-18T11:23:32;263.85;;;236.45;;
18267;SDS011;9260;49.998;19.880;2022-07-18T11:33:49;266.77;;;238.73;;
18267;SDS011;9260;49.998;19.880;2022-07-18T11:43:53;210.52;;;185.18;;
18267;SDS011;9260;49.998;19.880;2022-07-18T11:54:00;329.45;;;297.48;;
18267;SDS011;9260;49.998;19.880;2022-07-18T12:04:04;269.52;;;240.82;;
18267;SDS011;9260;49.998;19.880;2022-07-18T12:14:14;267.88;;;239.55;;
18267;SDS011;9260;49.998;19.880;2022-07-18T12:24:20;273.08;;;243.70;;
18267;SDS011;9260;49.998;19.880;2022-07-18T12:34:34;247.52;;;212.55;;
18267;SDS011;9260;49.998;19.880;2022-07-18T12:44:38;229.02;;;162.70;;
18267;SDS011;9260;49.998;19.880;2022-07-18T12:54:48;269.10;;;213.07;;
18267;SDS011;9260;49.998;19.880;2022-07-18T13:04:53;258.80;;;187.70;;
18267;SDS011;9260;49.998;19.880;2022-07-18T13:14:59;311.02;;;273.13;;
18267;SDS011;9260;49.998;19.880;2022-07-18T13:25:03;286.73;;;208.80;;
18267;SDS011;9260;49.998;19.880;2022-07-18T13:35:10;296.83;;;221.95;;
18267;SDS011;9260;49.998;19.880;2022-07-18T13:45:15;284.02;;;199.77;;
18267;SDS011;9260;49.998;19.880;2022-07-18T13:55:21;271.85;;;177.05;;
18267;SDS011;9260;49.998;19.880;2022-07-18T14:05:25;260.77;;;149.10;;
18267;SDS011;9260;49.998;19.880;2022-07-18T14:15:30;281.75;;;172.30;;
18267;SDS011;9260;49.998;19.880;2022-07-18T14:25:34;238.55;;;137.13;;
18267;SDS011;9260;49.998;19.880;2022-07-18T14:35:40;252.52;;;151.68;;
18267;SDS011;9260;49.998;19.880;2022-07-18T14:45:44;246.80;;;137.30;;
18267;SDS011;9260;49.998;19.880;2022-07-18T14:56:05;260.73;;;144.05;;
18267;SDS011;9260;49.998;19.880;2022-07-18T15:06:09;254.18;;;148.48;;
18267;SDS011;9260;49.998;19.880;2022-07-18T15:16:14;253.25;;;135.65;;
18267;SDS011;9260;49.998;19.880;2022-07-18T15:26:19;244.15;;;128.73;;
18267;SDS011;9260;49.998;19.880;2022-07-18T15:36:24;242.52;;;136.20;;
18267;SDS011;9260;49.998;19.880;2022-07-18T15:46:28;256.80;;;147.05;;
18267;SDS011;9260;49.998;19.880;2022-07-18T15:56:33;241.50;;;138.02;;
18267;SDS011;9260;49.998;19.880;2022-07-18T16:06:37;239.40;;;131.32;;
18267;SDS011;9260;49.998;19.880;2022-07-18T16:16:43;244.85;;;135.18;;
18267;SDS011;9260;49.998;19.880;2022-07-18T16:26:47;267.25;;;149.63;;
18267;SDS011;9260;49.998;19.880;2022-07-18T16:36:52;256.33;;;145.07;;
18267;SDS011;9260;49.998;19.880;2022-07-18T16:46:58;248.73;;;154.52;;
18267;SDS011;9260;49.998;19.880;2022-07-18T16:57:04;293.63;;;201.18;;
18267;SDS011;9260;49.998;19.880;2022-07-18T17:07:09;242.27;;;124.60;;
18267;SDS011;9260;49.998;19.880;2022-07-18T17:17:15;251.43;;;124.90;;
18267;SDS011;9260;49.998;19.880;2022-07-18T17:27:19;260.50;;;120.37;;
18267;SDS011;9260;49.998;19.880;2022-07-18T17:37:25;275.98;;;128.90;;
18267;SDS011;9260;49.998;19.880;2022-07-18T17:47:30;249.97;;;121.97;;
18267;SDS011;9260;49.998;19.880;2022-07-18T17:57:40;265.60;;;126.05;;
18267;SDS011;9260;49.998;19.880;2022-07-18T18:07:44;271.95;;;126.10;;
18267;SDS011;9260;49.998;19.880;2022-07-18T18:17:49;252.50;;;125.67;;
18267;SDS011;9260;49.998;19.880;2022-07-18T18:27:54;248.20;;;122.43;;
18267;SDS011;9260;49.998;19.880;2022-07-18T18:37:59;254.07;;;125.30;;
18267;SDS011;9260;49.998;19.880;2022-07-18T18:48:03;264.50;;;124.17;;
18267;SDS011;9260;49.998;19.880;2022-07-18T18:58:09;242.37;;;100.10;;
18267;SDS011;9260;49.998;19.880;2022-07-18T19:08:13;270.93;;;116.43;;
18267;SDS011;9260;49.998;19.880;2022-07-18T19:18:18;288.53;;;136.37;;
18267;SDS011;9260;49.998;19.880;2022-07-18T19:28:23;261.67;;;107.17;;
18267;SDS011;9260;49.998;19.880;2022-07-18T19:38:28;254.30;;;108.57;;
18267;SDS011;9260;49.998;19.880;2022-07-18T19:48:32;236.73;;;111.10;;
18267;SDS011;9260;49.998;19.880;2022-07-18T19:58:38;239.50;;;111.90;;
18267;SDS011;9260;49.998;19.880;2022-07-18T20:08:42;231.30;;;108.07;;
18267;SDS011;9260;49.998;19.880;2022-07-18T20:18:48;240.53;;;114.50;;
18267;SDS011;9260;49.998;19.880;2022-07-18T20:28:54;233.63;;;104.33;;
18267;SDS011;9260;49.998;19.880;2022-07-18T20:38:59;247.47;;;112.50;;
18267;SDS011;9260;49.998;19.880;2022-07-18T20:49:03;242.00;;;102.70;;
18267;SDS011;9260;49.998;19.880;2022-07-18T20:59:09;250.40;;;107.23;;
18267;SDS011;9260;49.998;19.880;2022-07-18T21:09:13;247.97;;;109.87;;
18267;SDS011;9260;49.998;19.880;2022-07-18T21:19:18;239.07;;;105.30;;
18267;SDS011;9260;49.998;19.880;2022-07-18T21:29:22;241.87;;;100.87;;
18267;SDS011;9260;49.998;19.880;2022-07-18T21:39:35;237.03;;;103.87;;
18267;SDS011;9260;49.998;19.880;2022-07-18T21:49:40;233.10;;;101.87;;
18267;SDS011;9260;49.998;19.880;2022-07-18T21:59:46;240.57;;;111.83;;
18267;SDS011;9260;49.998;19.880;2022-07-18T22:09:50;242.00;;;110.43;;
18267;SDS011;9260;49.998;19.880;2022-07-18T22:19:55;248.73;;;117.60;;
18267;SDS011;9260;49.998;19.880;2022-07-18T22:29:58;242.07;;;109.63;;
18267;SDS011;9260;49.998;19.880;2022-07-18T22:40:05;232.37;;;106.23;;
18267;SDS011;9260;49.998;19.880;2022-07-18T22:50:10;226.40;;;98.30;;
18267;SDS011;9260;49.998;19.880;2022-07-18T23:00:16;220.47;;;95.77;;
18267;SDS011;9260;49.998;19.880;2022-07-18T23:10:20;230.20;;;99.07;;
18267;SDS011;9260;49.998;19.880;2022-07-18T23:20:26;220.63;;;95.30;;
18267;SDS011;9260;49.998;19.880;2022-07-18T23:30:30;230.47;;;114.83;;
18267;SDS011;9260;49.998;19.880;2022-07-18T23:40:36;234.03;;;124.27;;
18267;SDS011;9260;49.998;19.880;2022-07-18T23:50:40;225.97;;;104.87;;
